Time;durP1;ratioP1;P1;durP2;ratioP2;P2;SDS_P1;SDS_P2;PMS_P1;PMS_P2;Temp;Humidity;BMP_temperature;BMP_pressure;BME280_temperature;BME280_humidity;BME280_pressure;Samples;Min_cycle;Max_cycle;Signal;HPM_P1;HPM_P2
2020/12/18 00:00:08;;;;;;;9.33;8.33;;;;;;;;;;5093373;28;20477;-57
2020/12/18 00:02:35;;;;;;;9.73;8.73;;;;;;;;;;5092137;28;20032;-57
2020/12/18 00:05:24;;;;;;;;;;;;;;;;;;;;;
2020/12/18 00:11:23;;;;;;;8.70;7.80;;;;;;;;;;5080371;28;20044;-57
2020/12/18 00:13:55;;;;;;;9.10;8.20;;;;;;;;;;5093152;28;20032;-55
2020/12/18 00:16:26;;;;;;;8.87;8.07;;;;;;;;;;5091965;28;20078;-57
2020/12/18 00:18:59;;;;;;;7.97;6.60;;;;;;;;;;5095227;28;20031;-57
2020/12/18 00:24:37;;;;;;;8.90;7.97;;;;;;;;;;5096927;28;20035;-58
2020/12/18 00:27:57;;;;;;;8.57;7.67;;;;;;;;;;5099133;28;20020;-58
2020/12/18 00:30:36;;;;;;;8.23;7.43;;;;;;;;;;5019130;28;20125;-54
2020/12/18 00:33:14;;;;;;;10.37;7.33;;;;;;;;;;5098758;28;20036;-57
2020/12/18 00:39:02;;;;;;;9.63;8.63;;;;;;;;;;5098109;28;20047;-54
2020/12/18 00:41:46;;;;;;;9.67;8.67;;;;;;;;;;5098078;28;20036;-55
2020/12/18 00:44:31;;;;;;;12.20;9.73;;;;;;;;;;5098208;28;20074;-56
2020/12/18 00:47:00;;;;;;;8.90;8.00;;;;;;;;;;5097877;28;20104;-55
2020/12/18 00:49:49;;;;;;;10.63;7.63;;;;;;;;;;5097949;28;20027;-57
2020/12/18 00:52:18;;;;;;;11.60;10.37;;;;;;;;;;5095225;28;20492;-57
2020/12/18 00:55:10;;;;;;;11.33;10.07;;;;;;;;;;5098634;28;20343;-57
2020/12/18 01:00:44;;;;;;;11.33;8.80;;;;;;;;;;5098472;28;20066;-57
2020/12/18 01:03:49;;;;;;;10.07;8.97;;;;;;;;;;5097317;28;20028;-57
2020/12/18 01:06:22;;;;;;;11.90;9.37;;;;;;;;;;5098127;28;20024;-57
2020/12/18 01:09:15;;;;;;;15.80;8.27;;;;;;;;;;5098477;28;20029;-56
2020/12/18 01:11:53;;;;;;;11.73;9.13;;;;;;;;;;5096388;28;20032;-57
2020/12/18 01:14:34;;;;;;;14.33;8.57;;;;;;;;;;5089421;28;20054;-54
2020/12/18 01:17:10;;;;;;;9.53;8.27;;;;;;;;;;5097751;28;20048;-55
2020/12/18 01:20:04;;;;;;;;;;;;;;;;;;;;;
2020/12/18 01:25:31;;;;;;;14.30;8.60;;;;;;;;;;5093354;28;20333;-57
2020/12/18 01:28:18;;;;;;;9.83;8.83;;;;;;;;;;5076880;28;20059;-57
2020/12/18 01:33:36;;;;;;;9.63;8.63;;;;;;;;;;5086665;28;20039;-57
2020/12/18 01:36:16;;;;;;;11.20;8.90;;;;;;;;;;5097080;28;20089;-57
2020/12/18 01:38:46;;;;;;;10.23;9.17;;;;;;;;;;5095767;28;20028;-56
2020/12/18 01:41:21;;;;;;;12.33;8.87;;;;;;;;;;5096998;28;20263;-57
2020/12/18 01:44:06;;;;;;;10.53;9.40;;;;;;;;;;5078681;28;20119;-55
2020/12/18 01:46:39;;;;;;;10.97;8.93;;;;;;;;;;5079053;28;20024;-57
2020/12/18 01:49:34;;;;;;;9.80;8.80;;;;;;;;;;5097069;28;20525;-55
2020/12/18 01:55:09;;;;;;;10.82;9.73;;;;;;;;;;5082676;28;20089;-57
2020/12/18 01:58:05;;;;;;;12.33;9.40;;;;;;;;;;5096275;28;20087;-57
2020/12/18 02:00:45;;;;;;;11.63;9.47;;;;;;;;;;5091571;28;20043;-55
2020/12/18 02:03:36;;;;;;;15.15;9.23;;;;;;;;;;5096439;28;20024;-58
2020/12/18 02:06:26;;;;;;;10.05;8.63;;;;;;;;;;5096824;28;20051;-55
2020/12/18 02:11:54;;;;;;;10.83;9.10;;;;;;;;;;5092203;28;20038;-57
2020/12/18 02:14:33;;;;;;;11.13;7.97;;;;;;;;;;5097144;28;20082;-56
2020/12/18 02:17:04;;;;;;;9.23;8.33;;;;;;;;;;5095667;28;20052;-57
2020/12/18 02:23:07;;;;;;;;;;;;;;;;;;;;;
2020/12/18 02:25:45;;;;;;;11.35;9.43;;;;;;;;;;5096013;28;20103;-57
2020/12/18 02:28:12;;;;;;;10.10;9.07;;;;;;;;;;5096446;28;20020;-57
2020/12/18 02:31:12;;;;;;;9.60;8.57;;;;;;;;;;5043611;28;20123;-56
2020/12/18 02:34:02;;;;;;;13.18;9.73;;;;;;;;;;5096493;28;20085;-58
2020/12/18 02:36:38;;;;;;;10.02;9.00;;;;;;;;;;5096658;28;20070;-56
2020/12/18 02:45:15;;;;;;;11.67;10.47;;;;;;;;;;5095376;28;20038;-57
2020/12/18 02:47:43;;;;;;;11.90;10.40;;;;;;;;;;5095313;28;20108;-57
2020/12/18 02:50:42;;;;;;;11.98;9.68;;;;;;;;;;5096528;28;20024;-57
2020/12/18 02:53:27;;;;;;;14.87;10.77;;;;;;;;;;5076721;28;20500;-57
2020/12/18 02:56:12;;;;;;;14.73;11.07;;;;;;;;;;5077521;28;20376;-56
2020/12/18 02:58:54;;;;;;;12.95;10.38;;;;;;;;;;5096525;28;20028;-56
2020/12/18 03:01:29;;;;;;;11.33;10.17;;;;;;;;;;5095822;28;20028;-56
2020/12/18 03:04:01;;;;;;;11.17;9.07;;;;;;;;;;5095308;28;20063;-58
2020/12/18 03:06:42;;;;;;;12.00;10.80;;;;;;;;;;5095668;28;20032;-57
2020/12/18 03:09:30;;;;;;;;;;;;;;;;;;;;;
2020/12/18 03:12:06;;;;;;;14.37;11.07;;;;;;;;;;5096194;28;20290;-57
2020/12/18 03:17:48;;;;;;;13.03;10.20;;;;;;;;;;5095019;28;20048;-56
2020/12/18 03:20:41;;;;;;;10.82;9.65;;;;;;;;;;5096420;28;20028;-58
2020/12/18 03:26:22;;;;;;;11.97;10.67;;;;;;;;;;5032964;28;20045;-57
2020/12/18 03:28:55;;;;;;;11.03;9.47;;;;;;;;;;5064170;28;20039;-57
2020/12/18 03:31:36;;;;;;;12.30;9.93;;;;;;;;;;5093059;28;20050;-58
2020/12/18 03:34:20;;;;;;;12.00;9.60;;;;;;;;;;5096649;28;20020;-55
2020/12/18 03:40:22;;;;;;;9.57;8.57;;;;;;;;;;5092909;28;20157;-58
2020/12/18 03:43:13;;;;;;;11.93;10.73;;;;;;;;;;5033255;28;20061;-57
2020/12/18 03:46:29;;;;;;;14.33;9.97;;;;;;;;;;5033558;28;20048;-56
2020/12/18 03:49:07;;;;;;;13.37;10.87;;;;;;;;;;5033175;28;20025;-57
2020/12/18 03:51:45;;;;;;;10.73;9.63;;;;;;;;;;5033444;28;20050;-57
2020/12/18 03:57:19;;;;;;;11.73;10.53;;;;;;;;;;5044455;28;20077;-57
2020/12/18 04:02:54;;;;;;;9.43;8.52;;;;;;;;;;5088521;28;20054;-57
2020/12/18 04:05:49;;;;;;;9.98;8.45;;;;;;;;;;5099979;28;20035;-57
2020/12/18 04:08:33;;;;;;;9.70;8.47;;;;;;;;;;5057330;28;20041;-57
2020/12/18 04:11:21;;;;;;;;;;;;;;;;;;;;;
2020/12/18 04:13:55;;;;;;;10.93;9.10;;;;;;;;;;5075420;28;20127;-58
2020/12/18 04:19:37;;;;;;;11.18;9.63;;;;;;;;;;5064353;28;20052;-57
2020/12/18 04:22:21;;;;;;;10.73;9.68;;;;;;;;;;5056147;28;20650;-56
2020/12/18 04:25:32;;;;;;;;;;;;;;;;;;;;;
2020/12/18 04:28:04;;;;;;;;;;;;;;;;;;5076843;28;20112;-58
2020/12/18 04:31:03;;;;;;;;;;;;;;;;;;;;;
2020/12/18 04:34:15;;;;;;;10.45;8.65;;;;;;;;;;5067389;28;20639;-57
2020/12/18 04:36:44;;;;;;;11.07;9.85;;;;;;;;;;4960323;28;20035;-58
2020/12/18 04:39:18;;;;;;;11.20;10.10;;;;;;;;;;4994115;28;20133;-57
2020/12/18 04:44:57;;;;;;;11.20;10.05;;;;;;;;;;4994572;28;20065;-57
2020/12/18 04:47:27;;;;;;;10.98;9.85;;;;;;;;;;5015594;28;20473;-53
2020/12/18 04:50:23;;;;;;;13.30;10.73;;;;;;;;;;5097229;28;20031;-57
2020/12/18 04:53:29;;;;;;;12.40;10.67;;;;;;;;;;5097333;28;20773;-57
2020/12/18 04:56:01;;;;;;;13.03;11.70;;;;;;;;;;5110724;28;20068;-58
2020/12/18 04:58:51;;;;;;;10.90;9.80;;;;;;;;;;5097317;28;20020;-57
2020/12/18 05:04:25;;;;;;;11.32;9.98;;;;;;;;;;5092968;28;20062;-58
2020/12/18 05:07:30;;;;;;;13.48;10.57;;;;;;;;;;5096932;28;20030;-58
2020/12/18 05:09:58;;;;;;;11.67;9.23;;;;;;;;;;5094893;28;20032;-56
2020/12/18 05:15:47;;;;;;;13.05;10.93;;;;;;;;;;5095622;28;20030;-56
2020/12/18 05:18:55;;;;;;;16.40;11.85;;;;;;;;;;5096709;28;20052;-57
2020/12/18 05:27:39;;;;;;;11.50;9.90;;;;;;;;;;5082632;28;20032;-57
2020/12/18 05:30:43;;;;;;;10.25;9.07;;;;;;;;;;5097551;28;20331;-57
2020/12/18 05:36:32;;;;;;;12.90;10.37;;;;;;;;;;5096808;28;20465;-57
2020/12/18 05:39:14;;;;;;;13.37;9.80;;;;;;;;;;5078008;28;20079;-57
2020/12/18 05:42:22;;;;;;;10.95;9.85;;;;;;;;;;5096264;28;20020;-58
2020/12/18 05:45:00;;;;;;;11.00;9.93;;;;;;;;;;5061461;28;20036;-57
2020/12/18 05:47:58;;;;;;;14.00;9.60;;;;;;;;;;5078931;28;20116;-58
2020/12/18 05:50:40;;;;;;;9.47;8.57;;;;;;;;;;5085651;28;20085;-57
2020/12/18 05:53:20;;;;;;;10.75;9.65;;;;;;;;;;5076866;28;20462;-57
2020/12/18 05:55:58;;;;;;;13.60;12.10;;;;;;;;;;5078793;28;20457;-56
2020/12/18 05:58:39;;;;;;;12.17;10.53;;;;;;;;;;5097898;28;20085;-57
2020/12/18 06:01:15;;;;;;;17.45;10.65;;;;;;;;;;5096160;28;20349;-56
2020/12/18 06:04:10;;;;;;;11.23;9.97;;;;;;;;;;5076626;28;20496;-57
2020/12/18 06:06:49;;;;;;;13.07;10.93;;;;;;;;;;5066547;28;20031;-57
2020/12/18 06:09:44;;;;;;;11.00;9.80;;;;;;;;;;5096017;28;20020;-57
2020/12/18 06:12:21;;;;;;;;;;;;;;;;;;;;;
2020/12/18 06:15:12;;;;;;;12.93;11.63;;;;;;;;;;5095162;28;20358;-55
2020/12/18 06:17:41;;;;;;;;;;;;;;;;;;5077790;28;20567;-56
2020/12/18 06:20:46;;;;;;;;;;;;;;;;;;;;;
2020/12/18 06:23:36;;;;;;;10.50;9.50;;;;;;;;;;5094648;28;20062;-57
2020/12/18 06:29:38;;;;;;;11.60;10.00;;;;;;;;;;5069675;28;20073;-55
2020/12/18 06:35:35;;;;;;;11.67;10.00;;;;;;;;;;5085078;28;20054;-57
2020/12/18 06:38:22;;;;;;;11.40;10.10;;;;;;;;;;5095654;28;20361;-56
2020/12/18 06:44:11;;;;;;;10.07;9.03;;;;;;;;;;5014003;28;20030;-58
2020/12/18 06:46:40;;;;;;;13.33;10.30;;;;;;;;;;5022517;28;20485;-56
2020/12/18 06:49:15;;;;;;;10.63;9.53;;;;;;;;;;5078202;28;20063;-55
2020/12/18 06:51:59;;;;;;;12.47;11.17;;;;;;;;;;5076379;28;20028;-57
2020/12/18 06:54:45;;;;;;;13.17;10.83;;;;;;;;;;5093615;28;20469;-55
2020/12/18 07:00:45;;;;;;;;;;;;;;;;;;;;;
2020/12/18 07:03:30;;;;;;;10.50;9.50;;;;;;;;;;5092913;28;20553;-54
2020/12/18 07:06:28;;;;;;;10.77;9.68;;;;;;;;;;5095744;28;20487;-58
2020/12/18 07:08:56;;;;;;;13.10;10.13;;;;;;;;;;5008526;28;20401;-56
2020/12/18 07:14:42;;;;;;;11.90;10.70;;;;;;;;;;5091196;28;20052;-57
2020/12/18 07:17:43;;;;;;;11.65;10.52;;;;;;;;;;5077439;28;20054;-56
2020/12/18 07:20:41;;;;;;;10.85;8.93;;;;;;;;;;5052198;28;20144;-55
2020/12/18 07:23:43;;;;;;;9.83;8.83;;;;;;;;;;5096209;28;20028;-57
2020/12/18 07:26:29;;;;;;;10.70;9.60;;;;;;;;;;5094875;28;20055;-57
2020/12/18 07:29:14;;;;;;;13.77;10.57;;;;;;;;;;5095230;28;20039;-57
2020/12/18 07:31:54;;;;;;;11.50;9.90;;;;;;;;;;5094892;28;20024;-57
2020/12/18 07:34:26;;;;;;;9.80;8.80;;;;;;;;;;5072944;28;20457;-57
2020/12/18 07:37:16;;;;;;;11.90;9.88;;;;;;;;;;5094201;28;20529;-55
2020/12/18 07:40:06;;;;;;;12.07;10.80;;;;;;;;;;5076090;28;20024;-54
2020/12/18 07:42:43;;;;;;;11.63;10.43;;;;;;;;;;5027633;28;20120;-56
2020/12/18 07:48:28;;;;;;;11.73;10.50;;;;;;;;;;5023633;28;20057;-57
2020/12/18 07:51:04;;;;;;;9.75;8.75;;;;;;;;;;5037571;28;20032;-54
2020/12/18 07:54:27;;;;;;;;;;;;;;;;;;;;;
2020/12/18 07:57:21;;;;;;;14.15;10.63;;;;;;;;;;4972779;28;20027;-55
2020/12/18 08:00:09;;;;;;;11.00;9.80;;;;;;;;;;5046624;28;20033;-57
2020/12/18 08:03:20;;;;;;;12.77;11.43;;;;;;;;;;5051633;28;20108;-57
2020/12/18 08:12:12;;;;;;;10.70;9.65;;;;;;;;;;5008318;28;20121;-56
2020/12/18 08:18:00;;;;;;;13.80;11.43;;;;;;;;;;5040230;28;20112;-57
2020/12/18 08:20:49;;;;;;;11.80;10.63;;;;;;;;;;5060053;28;20067;-57
2020/12/18 08:23:31;;;;;;;10.47;9.37;;;;;;;;;;5074466;28;20492;-56
2020/12/18 08:25:57;;;;;;;12.60;10.32;;;;;;;;;;5073810;28;20028;-56
2020/12/18 08:28:55;;;;;;;11.15;10.10;;;;;;;;;;5073126;28;20028;-57
2020/12/18 08:31:37;;;;;;;13.00;10.60;;;;;;;;;;5055508;28;20371;-56
2020/12/18 08:34:06;;;;;;;12.30;11.07;;;;;;;;;;5056671;28;20052;-56
2020/12/18 08:39:44;;;;;;;11.57;9.90;;;;;;;;;;5073568;28;20444;-54
2020/12/18 08:42:24;;;;;;;12.52;11.23;;;;;;;;;;5055807;28;20533;-59
2020/12/18 08:45:13;;;;;;;13.75;11.20;;;;;;;;;;5072991;28;20035;-57
2020/12/18 08:51:04;;;;;;;13.48;12.18;;;;;;;;;;5078132;28;20060;-58
2020/12/18 08:54:02;;;;;;;12.30;11.00;;;;;;;;;;5036266;28;20436;-57
2020/12/18 08:56:44;;;;;;;14.85;13.38;;;;;;;;;;5034991;28;20055;-57
2020/12/18 08:59:19;;;;;;;14.48;13.15;;;;;;;;;;5076354;28;20033;-58
2020/12/18 09:01:56;;;;;;;13.98;12.57;;;;;;;;;;5077638;28;20036;-57
2020/12/18 09:04:46;;;;;;;12.52;10.85;;;;;;;;;;5058243;28;20035;-59
2020/12/18 09:07:30;;;;;;;16.70;13.43;;;;;;;;;;5038454;28;20494;-60
2020/12/18 09:10:14;;;;;;;13.25;11.95;;;;;;;;;;5077906;28;20024;-59
2020/12/18 09:12:59;;;;;;;13.73;12.40;;;;;;;;;;5077007;28;20415;-59
2020/12/18 09:21:39;;;;;;;13.80;12.43;;;;;;;;;;5098660;28;20036;-59
2020/12/18 09:24:29;;;;;;;11.07;9.98;;;;;;;;;;5098873;28;20070;-59
2020/12/18 09:27:24;;;;;;;;;;;;;;;;;;;;;
2020/12/18 09:30:17;;;;;;;10.85;9.80;;;;;;;;;;5073579;28;20115;-59
2020/12/18 09:36:19;;;;;;;12.25;11.00;;;;;;;;;;5097744;28;20373;-59
2020/12/18 09:39:11;;;;;;;;;;;;;;;;;;;;;
2020/12/18 09:41:57;;;;;;;11.77;10.68;;;;;;;;;;5097503;28;20050;-59
2020/12/18 09:44:38;;;;;;;18.05;12.52;;;;;;;;;;5097137;28;20032;-58
2020/12/18 09:50:18;;;;;;;14.88;13.32;;;;;;;;;;5087945;28;20062;-58
2020/12/18 09:53:07;;;;;;;15.65;14.07;;;;;;;;;;5096877;28;20098;-58
2020/12/18 10:01:26;;;;;;;12.75;11.43;;;;;;;;;;5034204;28;20092;-58
2020/12/18 10:04:19;;;;;;;12.27;11.18;;;;;;;;;;5091582;28;20035;-59
2020/12/18 10:06:52;;;;;;;11.73;10.63;;;;;;;;;;5097295;28;20016;-59
2020/12/18 10:09:44;;;;;;;11.07;9.93;;;;;;;;;;5077732;28;20036;-59
2020/12/18 10:12:16;;;;;;;12.32;11.10;;;;;;;;;;5096487;28;20032;-57
2020/12/18 10:15:05;;;;;;;10.60;9.60;;;;;;;;;;5096456;28;20071;-58
2020/12/18 10:17:58;;;;;;;13.03;11.67;;;;;;;;;;5086825;28;20032;-58
2020/12/18 10:20:37;;;;;;;10.27;9.30;;;;;;;;;;5062560;28;20301;-58
2020/12/18 10:23:11;;;;;;;10.50;9.40;;;;;;;;;;5096828;28;20028;-58
2020/12/18 10:26:07;;;;;;;10.48;9.48;;;;;;;;;;5096235;28;20023;-58
2020/12/18 10:29:08;;;;;;;11.35;10.30;;;;;;;;;;5091133;28;20055;-58
2020/12/18 10:32:03;;;;;;;10.32;9.38;;;;;;;;;;5092573;28;20040;-59
2020/12/18 10:34:50;;;;;;;11.18;9.93;;;;;;;;;;5095486;28;20050;-58
2020/12/18 10:37:48;;;;;;;;;;;;;;;;;;;;;
2020/12/18 10:40:41;;;;;;;10.35;9.32;;;;;;;;;;5096800;28;20505;-58
2020/12/18 10:43:17;;;;;;;;;;;;;;;;;;;;;
2020/12/18 10:45:59;;;;;;;11.05;9.95;;;;;;;;;;5096154;28;20110;-58
2020/12/18 10:48:37;;;;;;;9.27;8.40;;;;;;;;;;5095734;28;20027;-58
2020/12/18 10:51:24;;;;;;;7.03;6.35;;;;;;;;;;5095627;28;20020;-58
2020/12/18 10:56:55;;;;;;;9.43;8.52;;;;;;;;;;5095667;28;20086;-58
2020/12/18 10:59:50;;;;;;;8.75;7.85;;;;;;;;;;5079945;28;20052;-56
2020/12/18 11:02:31;;;;;;;;;;;;;;;;;;;;;
2020/12/18 11:05:09;;;;;;;7.55;6.85;;;;;;;;;;5094950;28;20032;-58
2020/12/18 11:07:52;;;;;;;8.45;7.63;;;;;;;;;;5094464;28;20059;-58
2020/12/18 11:10:37;;;;;;;9.23;7.40;;;;;;;;;;5095308;28;20020;-57
2020/12/18 11:13:26;;;;;;;9.00;7.88;;;;;;;;;;5094877;28;20377;-58
2020/12/18 11:16:18;;;;;;;8.57;7.10;;;;;;;;;;5094034;28;20461;-58
2020/12/18 11:19:01;;;;;;;8.73;7.90;;;;;;;;;;5091732;28;20032;-58
2020/12/18 11:21:41;;;;;;;7.20;6.50;;;;;;;;;;5094118;28;20051;-58
2020/12/18 11:24:51;;;;;;;;;;;;;;;;;;;;;
2020/12/18 11:27:17;;;;;;;7.30;6.40;;;;;;;;;;5091581;28;20046;-56
2020/12/18 11:30:09;;;;;;;9.75;7.40;;;;;;;;;;5094977;28;20028;-58
2020/12/18 11:32:45;;;;;;;7.53;6.82;;;;;;;;;;5092258;28;20402;-58
2020/12/18 11:35:33;;;;;;;8.27;7.57;;;;;;;;;;5094247;28;20036;-57
2020/12/18 11:38:06;;;;;;;7.53;6.80;;;;;;;;;;5094482;28;20032;-57
2020/12/18 11:40:45;;;;;;;;;;;;;;;;;;;;;
2020/12/18 11:43:30;;;;;;;7.15;6.45;;;;;;;;;;5075563;28;20044;-58
2020/12/18 11:46:01;;;;;;;8.05;7.22;;;;;;;;;;5094268;28;20020;-58
2020/12/18 11:51:46;;;;;;;6.75;5.88;;;;;;;;;;5093549;28;20036;-57
2020/12/18 11:54:17;;;;;;;8.45;7.53;;;;;;;;;;5094844;28;20028;-58
2020/12/18 11:56:56;;;;;;;9.20;6.20;;;;;;;;;;5093623;28;20028;-58
2020/12/18 12:05:27;;;;;;;7.47;6.78;;;;;;;;;;5094125;28;20070;-58
2020/12/18 12:08:02;;;;;;;6.18;5.60;;;;;;;;;;5092483;28;20032;-58
2020/12/18 12:10:51;;;;;;;8.00;6.75;;;;;;;;;;5094239;28;20040;-57
2020/12/18 12:13:38;;;;;;;7.03;6.40;;;;;;;;;;5090546;28;20127;-58
2020/12/18 12:16:11;;;;;;;7.15;5.30;;;;;;;;;;5092821;28;20035;-58
2020/12/18 12:18:49;;;;;;;6.32;5.38;;;;;;;;;;5093794;28;20031;-58
2020/12/18 12:21:45;;;;;;;5.68;4.93;;;;;;;;;;5097493;28;20447;-58
2020/12/18 12:24:27;;;;;;;6.35;5.50;;;;;;;;;;5042330;28;20056;-58
2020/12/18 12:26:56;;;;;;;6.20;5.60;;;;;;;;;;5095644;28;20028;-57
2020/12/18 12:30:22;;;;;;;6.82;5.40;;;;;;;;;;5096238;28;20031;-58
2020/12/18 12:32:32;;;;;;;5.60;4.85;;;;;;;;;;5085804;28;20062;-58
2020/12/18 12:35:19;;;;;;;7.40;6.10;;;;;;;;;;5097872;28;20381;-58
2020/12/18 12:37:50;;;;;;;5.95;5.35;;;;;;;;;;5096226;28;20027;-59
2020/12/18 12:40:32;;;;;;;5.65;5.05;;;;;;;;;;5097336;28;20103;-58
2020/12/18 12:49:17;;;;;;;5.18;4.68;;;;;;;;;;5095636;28;20024;-60
2020/12/18 12:51:46;;;;;;;6.95;5.90;;;;;;;;;;5094411;28;20567;-60
2020/12/18 12:54:22;;;;;;;6.10;5.47;;;;;;;;;;5095364;28;20043;-60
2020/12/18 12:57:06;;;;;;;5.90;5.20;;;;;;;;;;5097356;28;20031;-60
2020/12/18 12:59:44;;;;;;;6.18;4.90;;;;;;;;;;5095443;28;20035;-60
2020/12/18 13:02:16;;;;;;;6.25;4.78;;;;;;;;;;5095641;28;20024;-60
2020/12/18 13:04:51;;;;;;;5.80;4.82;;;;;;;;;;5097347;28;20078;-60
2020/12/18 13:07:31;;;;;;;5.45;4.95;;;;;;;;;;5096235;28;20054;-60
2020/12/18 13:10:03;;;;;;;6.20;5.50;;;;;;;;;;5079645;28;20032;-60
2020/12/18 13:12:32;;;;;;;6.53;5.07;;;;;;;;;;5097331;28;20119;-60
2020/12/18 13:15:28;;;;;;;5.75;4.75;;;;;;;;;;5097583;28;20410;-60
2020/12/18 13:18:12;;;;;;;5.70;5.05;;;;;;;;;;5097187;28;20024;-60
2020/12/18 13:20:44;;;;;;;5.07;4.57;;;;;;;;;;5094843;28;20667;-60
2020/12/18 13:23:15;;;;;;;6.60;4.35;;;;;;;;;;5096522;28;20038;-60
2020/12/18 13:25:47;;;;;;;6.28;5.43;;;;;;;;;;5096701;28;20484;-60
2020/12/18 13:28:26;;;;;;;6.50;5.80;;;;;;;;;;5096331;28;20095;-60
2020/12/18 13:30:52;;;;;;;10.55;5.72;;;;;;;;;;5095942;28;20027;-60
2020/12/18 13:33:28;;;;;;;7.50;5.28;;;;;;;;;;5095678;28;20038;-60
2020/12/18 13:36:19;;;;;;;6.47;5.82;;;;;;;;;;5093132;28;20431;-60
2020/12/18 13:39:25;;;;;;;5.28;4.78;;;;;;;;;;5095090;28;20033;-60
2020/12/18 13:42:26;;;;;;;6.13;4.63;;;;;;;;;;5095946;28;20024;-60
2020/12/18 13:45:00;;;;;;;5.10;4.60;;;;;;;;;;5096475;28;20024;-60
2020/12/18 13:47:31;;;;;;;6.95;4.85;;;;;;;;;;5094504;28;20024;-60
2020/12/18 13:53:02;;;;;;;6.70;5.60;;;;;;;;;;5090609;28;20046;-60
2020/12/18 13:55:37;;;;;;;7.32;6.65;;;;;;;;;;5092096;28;20038;-60
2020/12/18 13:58:23;;;;;;;7.80;5.28;;;;;;;;;;5094436;28;20025;-60
2020/12/18 14:00:56;;;;;;;6.38;5.78;;;;;;;;;;5084999;28;20040;-60
2020/12/18 14:03:38;;;;;;;8.32;6.07;;;;;;;;;;5095590;28;20105;-60
2020/12/18 14:06:18;;;;;;;5.88;4.90;;;;;;;;;;5096736;28;20326;-60
2020/12/18 14:08:58;;;;;;;7.50;6.65;;;;;;;;;;5096108;28;20020;-60
2020/12/18 14:11:30;;;;;;;8.48;7.07;;;;;;;;;;5093992;28;20031;-60
2020/12/18 14:14:15;;;;;;;9.45;6.75;;;;;;;;;;5094990;28;20093;-60
2020/12/18 14:16:47;;;;;;;7.25;6.55;;;;;;;;;;5088637;28;20039;-60
2020/12/18 14:19:19;;;;;;;7.78;6.70;;;;;;;;;;5094019;28;20032;-61
2020/12/18 14:22:04;;;;;;;;;;;;;;;;;;;;;
2020/12/18 14:24:31;;;;;;;9.10;8.18;;;;;;;;;;5090929;28;20032;-60
2020/12/18 14:26:57;;;;;;;7.13;6.40;;;;;;;;;;5094561;28;20036;-60
2020/12/18 14:29:23;;;;;;;8.20;6.63;;;;;;;;;;5095123;28;20020;-60
2020/12/18 14:32:11;;;;;;;7.57;6.80;;;;;;;;;;5095077;28;20074;-60
2020/12/18 14:34:50;;;;;;;;;;;;;;;;;;;;;
2020/12/18 14:37:28;;;;;;;7.82;7.00;;;;;;;;;;5094988;28;20028;-60
2020/12/18 14:40:04;;;;;;;;;;;;;;;;;;;;;
2020/12/18 14:42:36;;;;;;;9.70;8.60;;;;;;;;;;5081586;28;20366;-60
2020/12/18 14:45:05;;;;;;;9.75;8.45;;;;;;;;;;5077724;28;20051;-60
2020/12/18 14:47:37;;;;;;;9.93;8.93;;;;;;;;;;5076368;28;20431;-60
2020/12/18 14:50:10;;;;;;;10.93;9.13;;;;;;;;;;5094778;28;20028;-60
2020/12/18 14:52:39;;;;;;;10.13;8.57;;;;;;;;;;5094463;28;20469;-60
2020/12/18 14:55:29;;;;;;;;;;;;;;;;;;;;;
2020/12/18 14:58:06;;;;;;;10.40;8.93;;;;;;;;;;5094424;28;20035;-60
2020/12/18 15:00:40;;;;;;;8.02;7.22;;;;;;;;;;5076490;28;20035;-60
2020/12/18 15:03:18;;;;;;;7.45;6.60;;;;;;;;;;5094642;28;20031;-60
2020/12/18 15:05:45;;;;;;;9.65;7.85;;;;;;;;;;5090982;28;20120;-60
2020/12/18 15:08:38;;;;;;;8.85;8.00;;;;;;;;;;5076213;28;20318;-60
2020/12/18 15:11:07;;;;;;;8.15;7.38;;;;;;;;;;5075097;28;20400;-60
2020/12/18 15:13:51;;;;;;;7.40;6.70;;;;;;;;;;5094696;28;20372;-60
2020/12/18 15:16:38;;;;;;;7.82;7.07;;;;;;;;;;5075809;28;20404;-60
2020/12/18 15:19:21;;;;;;;7.63;6.82;;;;;;;;;;5077613;28;20404;-60
2020/12/18 15:22:02;;;;;;;7.07;6.32;;;;;;;;;;5093894;28;20032;-60
2020/12/18 15:24:33;;;;;;;8.00;6.75;;;;;;;;;;5094109;28;20032;-60
2020/12/18 15:27:05;;;;;;;8.38;7.57;;;;;;;;;;5094106;28;20542;-60
2020/12/18 15:32:29;;;;;;;11.43;8.15;;;;;;;;;;5094331;28;20043;-60
2020/12/18 15:35:16;;;;;;;9.63;7.32;;;;;;;;;;5077794;28;20046;-60
2020/12/18 15:37:48;;;;;;;7.57;6.38;;;;;;;;;;5091379;28;20032;-60
2020/12/18 15:40:25;;;;;;;8.75;7.85;;;;;;;;;;5093269;28;20078;-60
2020/12/18 15:43:29;;;;;;;8.68;7.13;;;;;;;;;;5093091;28;20043;-60
2020/12/18 15:46:02;;;;;;;8.35;6.93;;;;;;;;;;5093571;28;20028;-60
2020/12/18 15:48:47;;;;;;;8.63;7.38;;;;;;;;;;5092318;28;20379;-60
2020/12/18 15:51:25;;;;;;;6.95;6.22;;;;;;;;;;5093569;28;20024;-60
2020/12/18 15:53:55;;;;;;;7.35;6.55;;;;;;;;;;5095332;28;20040;-60
2020/12/18 15:56:47;;;;;;;7.57;6.82;;;;;;;;;;5100391;28;20034;-60
2020/12/18 15:59:16;;;;;;;7.22;6.53;;;;;;;;;;5098849;28;20094;-60
2020/12/18 16:02:09;;;;;;;7.95;7.15;;;;;;;;;;5100109;28;20040;-60
2020/12/18 16:04:55;;;;;;;8.90;6.57;;;;;;;;;;5095514;28;20147;-60
2020/12/18 16:07:31;;;;;;;9.57;7.80;;;;;;;;;;5100673;28;20020;-60
2020/12/18 16:10:12;;;;;;;7.43;6.72;;;;;;;;;;5100702;28;20024;-60
2020/12/18 16:12:55;;;;;;;7.45;6.60;;;;;;;;;;5098431;28;20072;-60
2020/12/18 16:15:31;;;;;;;7.47;6.78;;;;;;;;;;5098625;28;20047;-60
2020/12/18 16:18:03;;;;;;;7.93;6.85;;;;;;;;;;5082058;28;20360;-60
2020/12/18 16:20:36;;;;;;;8.27;7.47;;;;;;;;;;5100201;28;20075;-60
2020/12/18 16:23:12;;;;;;;11.93;10.48;;;;;;;;;;5097928;28;20119;-60
2020/12/18 16:25:53;;;;;;;14.88;10.57;;;;;;;;;;5100018;28;20111;-60
2020/12/18 16:28:25;;;;;;;9.85;8.82;;;;;;;;;;5099752;28;20107;-60
2020/12/18 16:30:51;;;;;;;9.05;8.18;;;;;;;;;;5082552;28;20024;-60
2020/12/18 16:33:23;;;;;;;8.88;7.97;;;;;;;;;;5081592;28;20024;-60
2020/12/18 16:35:50;;;;;;;9.57;8.57;;;;;;;;;;5082904;28;20050;-60
2020/12/18 16:38:34;;;;;;;8.88;8.05;;;;;;;;;;5099683;28;20024;-60
2020/12/18 16:41:02;;;;;;;8.85;7.97;;;;;;;;;;5081656;28;20028;-60
2020/12/18 16:43:33;;;;;;;9.00;7.55;;;;;;;;;;5083070;28;20106;-60
2020/12/18 16:46:02;;;;;;;7.00;6.22;;;;;;;;;;5080277;28;20028;-60
2020/12/18 16:48:29;;;;;;;8.40;7.10;;;;;;;;;;5100470;28;20028;-60
2020/12/18 16:51:15;;;;;;;7.63;6.90;;;;;;;;;;5099851;28;20458;-60
2020/12/18 16:53:48;;;;;;;8.27;7.15;;;;;;;;;;5098930;28;20032;-60
2020/12/18 16:56:37;;;;;;;8.60;7.72;;;;;;;;;;5099828;28;20039;-60
2020/12/18 16:59:26;;;;;;;7.70;6.95;;;;;;;;;;5089849;28;20071;-60
2020/12/18 17:02:37;;;;;;;8.65;7.57;;;;;;;;;;5099868;28;20024;-60
2020/12/18 17:08:11;;;;;;;12.80;7.45;;;;;;;;;;5096352;28;20032;-60
2020/12/18 17:10:41;;;;;;;9.82;7.57;;;;;;;;;;5062640;28;20028;-60
2020/12/18 17:13:27;;;;;;;9.68;8.45;;;;;;;;;;5077944;28;20035;-60
2020/12/18 17:16:06;;;;;;;10.90;7.80;;;;;;;;;;5078686;28;20028;-60
2020/12/18 17:18:40;;;;;;;9.02;8.13;;;;;;;;;;5094831;28;20578;-60
2020/12/18 17:21:15;;;;;;;9.95;8.80;;;;;;;;;;5096299;28;20044;-60
2020/12/18 17:23:52;;;;;;;8.10;7.32;;;;;;;;;;5079053;28;20412;-60
2020/12/18 17:26:31;;;;;;;10.23;9.15;;;;;;;;;;5078067;28;20028;-60
2020/12/18 17:29:12;;;;;;;9.77;8.88;;;;;;;;;;5096239;28;20024;-60
2020/12/18 17:32:16;;;;;;;11.65;10.65;;;;;;;;;;5078018;28;20566;-60
2020/12/18 17:35:05;;;;;;;12.35;9.65;;;;;;;;;;5078254;28;20382;-60
2020/12/18 17:40:25;;;;;;;9.20;8.27;;;;;;;;;;5096296;28;20032;-60
2020/12/18 17:43:05;;;;;;;;;;;;;;;;;;;;;
2020/12/18 17:45:44;;;;;;;;;;;;;;;;;;;;;
2020/12/18 17:48:24;;;;;;;13.00;11.75;;;;;;;;;;5096528;28;20054;-60
2020/12/18 17:51:07;;;;;;;15.65;14.13;;;;;;;;;;5094557;28;20036;-60
2020/12/18 17:53:34;;;;;;;11.52;10.15;;;;;;;;;;5077183;28;20151;-60
2020/12/18 17:56:03;;;;;;;9.88;8.95;;;;;;;;;;5096120;28;20024;-60
2020/12/18 17:58:30;;;;;;;9.07;8.18;;;;;;;;;;5095487;28;20024;-60
2020/12/18 18:01:09;;;;;;;10.43;9.43;;;;;;;;;;5094973;28;20031;-60
2020/12/18 18:03:46;;;;;;;10.07;9.15;;;;;;;;;;5095661;28;20042;-60
2020/12/18 18:06:28;;;;;;;8.23;7.43;;;;;;;;;;5077991;28;20024;-60
2020/12/18 18:09:00;;;;;;;7.60;6.90;;;;;;;;;;5095732;28;20024;-60
2020/12/18 18:11:38;;;;;;;9.13;8.13;;;;;;;;;;5095555;28;20024;-60
2020/12/18 18:14:29;;;;;;;9.20;7.35;;;;;;;;;;5077786;28;20032;-60
2020/12/18 18:16:58;;;;;;;;;;;;;;;;;;5094646;28;20024;-60
2020/12/18 18:19:30;;;;;;;8.52;7.60;;;;;;;;;;5095322;28;19904;-60
2020/12/18 18:22:05;;;;;;;10.80;9.15;;;;;;;;;;5094455;28;20059;-60
2020/12/18 18:27:31;;;;;;;10.88;9.52;;;;;;;;;;5065966;28;20354;-60
2020/12/18 18:30:03;;;;;;;11.95;9.65;;;;;;;;;;5075395;28;20028;-59
2020/12/18 18:32:52;;;;;;;10.88;9.65;;;;;;;;;;5077074;28;20169;-59
2020/12/18 18:35:38;;;;;;;10.40;8.30;;;;;;;;;;5077342;28;20461;-59
2020/12/18 18:38:17;;;;;;;8.75;7.85;;;;;;;;;;5094893;28;20035;-59
2020/12/18 18:40:52;;;;;;;8.38;7.60;;;;;;;;;;5095133;28;20028;-59
2020/12/18 18:43:32;;;;;;;9.50;7.70;;;;;;;;;;5077207;28;20039;-60
2020/12/18 18:46:08;;;;;;;7.85;6.97;;;;;;;;;;5095616;28;20473;-60
2020/12/18 18:48:54;;;;;;;7.80;6.90;;;;;;;;;;5059926;28;20078;-59
2020/12/18 18:51:23;;;;;;;7.97;7.18;;;;;;;;;;5076367;28;20024;-59
2020/12/18 18:53:58;;;;;;;7.38;6.68;;;;;;;;;;5094832;28;20478;-59
2020/12/18 18:56:28;;;;;;;7.22;6.53;;;;;;;;;;5094238;28;20028;-60
2020/12/18 18:59:02;;;;;;;6.85;5.60;;;;;;;;;;5094476;28;20428;-60